Time;durP1;ratioP1;P1;durP2;ratioP2;P2;SDS_P1;SDS_P2;PMS_P1;PMS_P2;Temp;Humidity;BMP_temperature;BMP_pressure;BME280_temperature;BME280_humidity;BME280_pressure;Samples;Min_cycle;Max_cycle;Signal;HPM_P1;HPM_P2
2021/08/13 00:01:08;;;;;;;11.52;3.55;;;;;;;;;;5058224;28;20351;-68
2021/08/13 00:03:34;;;;;;;6.80;3.35;;;;;;;;;;5001669;28;20033;-67
2021/08/13 00:06:01;;;;;;;4.15;3.50;;;;;;;;;;4999121;28;20424;-70
2021/08/13 00:08:27;;;;;;;10.60;3.67;;;;;;;;;;5001483;28;20492;-67
2021/08/13 00:10:53;;;;;;;5.57;3.42;;;;;;;;;;5001798;28;20032;-79
2021/08/13 00:13:19;;;;;;;4.43;3.42;;;;;;;;;;5081878;28;20494;-80
2021/08/13 00:15:45;;;;;;;5.68;3.45;;;;;;;;;;5095846;28;20020;-80
2021/08/13 00:18:11;;;;;;;10.18;3.90;;;;;;;;;;5113451;28;20114;-66
2021/08/13 00:20:37;;;;;;;5.43;3.28;;;;;;;;;;5098412;28;20103;-70
2021/08/13 00:23:03;;;;;;;7.20;3.35;;;;;;;;;;5092914;28;20499;-68
2021/08/13 00:25:29;;;;;;;8.82;3.25;;;;;;;;;;5092982;28;20061;-68
2021/08/13 00:27:56;;;;;;;8.95;3.40;;;;;;;;;;5074917;28;20483;-68
2021/08/13 00:30:21;;;;;;;6.72;3.55;;;;;;;;;;5092895;28;20430;-69
2021/08/13 00:32:47;;;;;;;6.45;3.00;;;;;;;;;;5074678;28;20475;-68
2021/08/13 00:35:14;;;;;;;4.72;3.47;;;;;;;;;;5092875;28;20058;-71
2021/08/13 00:37:39;;;;;;;9.57;3.60;;;;;;;;;;5075055;28;20459;-70
2021/08/13 00:40:06;;;;;;;5.07;3.50;;;;;;;;;;5093118;28;20020;-71
2021/08/13 00:42:32;;;;;;;4.53;3.28;;;;;;;;;;5093121;28;20020;-71
2021/08/13 00:44:58;;;;;;;4.20;3.05;;;;;;;;;;5093012;28;20021;-72
2021/08/13 00:47:24;;;;;;;4.00;2.83;;;;;;;;;;5093096;28;20467;-70
2021/08/13 00:49:50;;;;;;;4.07;2.92;;;;;;;;;;5093467;28;20027;-71
2021/08/13 00:52:17;;;;;;;4.03;2.85;;;;;;;;;;5092791;28;20489;-70
2021/08/13 00:54:43;;;;;;;5.47;3.20;;;;;;;;;;5093122;28;20047;-70
2021/08/13 00:57:09;;;;;;;4.10;3.30;;;;;;;;;;5092938;28;20047;-70
2021/08/13 00:59:37;;;;;;;6.10;2.97;;;;;;;;;;5092959;28;20042;-71
2021/08/13 01:02:03;;;;;;;4.93;3.00;;;;;;;;;;5093214;28;20020;-71
2021/08/13 01:04:29;;;;;;;6.28;2.83;;;;;;;;;;5093304;28;20103;-71
2021/08/13 01:06:55;;;;;;;2.95;2.53;;;;;;;;;;5092813;28;20107;-71
2021/08/13 01:09:22;;;;;;;3.33;3.00;;;;;;;;;;5092924;28;20082;-71
2021/08/13 01:11:51;;;;;;;4.38;2.97;;;;;;;;;;5094906;28;20016;-70
2021/08/13 01:14:26;;;;;;;6.95;3.13;;;;;;;;;;5096402;28;20382;-70
2021/08/13 01:16:53;;;;;;;3.47;2.90;;;;;;;;;;5078273;28;20024;-71
2021/08/13 01:19:22;;;;;;;5.18;2.85;;;;;;;;;;5096461;28;20028;-71
2021/08/13 01:22:04;;;;;;;5.65;2.72;;;;;;;;;;5096259;28;20180;-71
2021/08/13 01:24:31;;;;;;;7.40;3.00;;;;;;;;;;5096668;28;20019;-71
2021/08/13 01:27:08;;;;;;;7.53;3.25;;;;;;;;;;5096284;28;20031;-72
2021/08/13 01:29:38;;;;;;;5.72;2.88;;;;;;;;;;5096221;28;20055;-71
2021/08/13 01:32:13;;;;;;;6.70;3.47;;;;;;;;;;5096348;28;20094;-71
2021/08/13 01:34:51;;;;;;;5.20;3.05;;;;;;;;;;5096082;28;20383;-71
2021/08/13 01:37:18;;;;;;;3.10;2.67;;;;;;;;;;5095945;28;20031;-69
2021/08/13 01:39:44;;;;;;;3.85;2.90;;;;;;;;;;5096478;28;20035;-69
2021/08/13 01:42:10;;;;;;;3.13;2.53;;;;;;;;;;5096616;28;20024;-70
2021/08/13 01:44:37;;;;;;;3.63;2.72;;;;;;;;;;5077989;28;20028;-71
2021/08/13 01:47:03;;;;;;;4.93;2.95;;;;;;;;;;5095956;28;20020;-71
2021/08/13 01:49:31;;;;;;;5.93;3.03;;;;;;;;;;5095888;28;20105;-72
2021/08/13 01:51:58;;;;;;;5.57;2.67;;;;;;;;;;5095607;28;20020;-71
2021/08/13 01:54:24;;;;;;;3.90;2.55;;;;;;;;;;5095702;28;20084;-71
2021/08/13 01:56:51;;;;;;;3.15;2.65;;;;;;;;;;5095686;28;20439;-70
2021/08/13 01:59:17;;;;;;;3.67;2.80;;;;;;;;;;5095673;28;20448;-70
2021/08/13 02:01:44;;;;;;;5.55;2.90;;;;;;;;;;5095639;28;20402;-70
2021/08/13 02:04:10;;;;;;;4.22;2.67;;;;;;;;;;5077483;28;20431;-70
2021/08/13 02:06:36;;;;;;;3.00;2.50;;;;;;;;;;5095400;28;20024;-71
2021/08/13 02:09:03;;;;;;;4.65;2.88;;;;;;;;;;5095623;28;20039;-70
2021/08/13 02:11:29;;;;;;;3.25;2.60;;;;;;;;;;5095371;28;20052;-71
2021/08/13 02:13:56;;;;;;;4.20;2.50;;;;;;;;;;5095143;28;20510;-71
2021/08/13 02:16:24;;;;;;;2.83;2.47;;;;;;;;;;5095525;28;20065;-71
2021/08/13 02:18:54;;;;;;;3.50;2.60;;;;;;;;;;5095292;28;20020;-71
2021/08/13 02:21:22;;;;;;;3.65;2.85;;;;;;;;;;5095130;28;20024;-71
2021/08/13 02:23:48;;;;;;;3.15;2.80;;;;;;;;;;5094198;28;20016;-71
2021/08/13 02:26:14;;;;;;;5.15;2.75;;;;;;;;;;5095369;28;20028;-71
2021/08/13 02:28:40;;;;;;;4.30;2.70;;;;;;;;;;5095306;28;20106;-71
2021/08/13 02:31:06;;;;;;;3.88;2.47;;;;;;;;;;5095401;28;20023;-72
2021/08/13 02:33:32;;;;;;;2.70;2.50;;;;;;;;;;5094862;28;20028;-68
2021/08/13 02:36:02;;;;;;;3.22;2.83;;;;;;;;;;5095376;28;20552;-69
2021/08/13 02:38:32;;;;;;;13.18;2.92;;;;;;;;;;5076764;28;20048;-69
2021/08/13 02:41:01;;;;;;;3.15;2.55;;;;;;;;;;5095010;28;20036;-71
2021/08/13 02:43:29;;;;;;;2.72;2.38;;;;;;;;;;5076725;28;20031;-71
2021/08/13 02:45:59;;;;;;;3.40;2.60;;;;;;;;;;5094844;28;20081;-71
2021/08/13 02:48:25;;;;;;;4.70;2.38;;;;;;;;;;5094854;28;20020;-71
2021/08/13 02:50:51;;;;;;;2.83;2.25;;;;;;;;;;5094493;28;20174;-70
2021/08/13 02:53:21;;;;;;;4.63;2.42;;;;;;;;;;5094501;28;20035;-70
2021/08/13 02:55:59;;;;;;;2.88;2.47;;;;;;;;;;5076349;28;20544;-72
2021/08/13 02:58:27;;;;;;;4.45;2.58;;;;;;;;;;5095025;28;20052;-71
2021/08/13 03:00:54;;;;;;;4.40;2.28;;;;;;;;;;5076301;28;20115;-71
2021/08/13 03:03:21;;;;;;;3.38;2.70;;;;;;;;;;5094766;28;20027;-72
2021/08/13 03:05:53;;;;;;;3.53;2.10;;;;;;;;;;5094509;28;20028;-71
2021/08/13 03:08:19;;;;;;;2.60;2.40;;;;;;;;;;5094281;28;20032;-71
2021/08/13 03:10:45;;;;;;;3.42;2.25;;;;;;;;;;5094551;28;20028;-72
2021/08/13 03:13:11;;;;;;;3.03;2.40;;;;;;;;;;5093931;28;20048;-72
2021/08/13 03:15:38;;;;;;;2.83;2.40;;;;;;;;;;5094102;28;20395;-71
2021/08/13 03:18:04;;;;;;;4.63;2.10;;;;;;;;;;5094257;28;20020;-71
2021/08/13 03:20:30;;;;;;;3.38;2.17;;;;;;;;;;5094014;28;20039;-72
2021/08/13 03:22:56;;;;;;;3.97;2.50;;;;;;;;;;5093946;28;20378;-72
2021/08/13 03:25:23;;;;;;;2.60;2.00;;;;;;;;;;5093996;28;20374;-72
2021/08/13 03:27:49;;;;;;;2.30;2.10;;;;;;;;;;5093984;28;20077;-72
2021/08/13 03:30:15;;;;;;;5.93;2.28;;;;;;;;;;5094008;28;20024;-72
2021/08/13 03:32:42;;;;;;;4.45;1.90;;;;;;;;;;5093833;28;20024;-73
2021/08/13 03:35:09;;;;;;;5.82;2.10;;;;;;;;;;5093730;28;20070;-71
2021/08/13 03:37:35;;;;;;;2.42;2.17;;;;;;;;;;5093836;28;20020;-71
2021/08/13 03:40:03;;;;;;;3.55;2.08;;;;;;;;;;5093718;28;20031;-73
2021/08/13 03:42:29;;;;;;;4.00;2.65;;;;;;;;;;5093734;28;20016;-73
2021/08/13 03:44:54;;;;;;;2.95;1.92;;;;;;;;;;5093862;28;20055;-72
2021/08/13 03:47:20;;;;;;;3.50;2.08;;;;;;;;;;5075537;28;20067;-73
2021/08/13 03:49:46;;;;;;;2.22;2.00;;;;;;;;;;5093617;28;20539;-70
2021/08/13 03:52:12;;;;;;;2.50;2.30;;;;;;;;;;5093641;28;20115;-72
2021/08/13 03:54:38;;;;;;;2.78;1.90;;;;;;;;;;5075326;28;20028;-71
2021/08/13 03:57:04;;;;;;;1.92;1.63;;;;;;;;;;5093797;28;20356;-74
2021/08/13 03:59:30;;;;;;;4.40;2.15;;;;;;;;;;5093462;28;20112;-71
2021/08/13 04:01:56;;;;;;;2.33;1.88;;;;;;;;;;5093507;28;20105;-72
2021/08/13 04:04:22;;;;;;;3.78;2.13;;;;;;;;;;5093441;28;20036;-72
2021/08/13 04:06:48;;;;;;;2.13;1.83;;;;;;;;;;5093556;28;20012;-73
2021/08/13 04:09:14;;;;;;;3.45;2.40;;;;;;;;;;5075275;28;20421;-72
2021/08/13 04:11:40;;;;;;;2.00;1.75;;;;;;;;;;5093331;28;20017;-72
2021/08/13 04:14:06;;;;;;;3.22;2.03;;;;;;;;;;5093373;28;20110;-72
2021/08/13 04:16:32;;;;;;;2.00;1.75;;;;;;;;;;5093551;28;20024;-72
2021/08/13 04:18:58;;;;;;;2.10;1.90;;;;;;;;;;5093387;28;20031;-72
2021/08/13 04:21:24;;;;;;;2.47;1.98;;;;;;;;;;5093161;28;20059;-72
2021/08/13 04:23:50;;;;;;;2.22;1.70;;;;;;;;;;5075296;28;20425;-70
2021/08/13 04:26:16;;;;;;;2.50;2.17;;;;;;;;;;5075182;28;20055;-71
2021/08/13 04:28:42;;;;;;;2.88;2.00;;;;;;;;;;5093311;28;20028;-71
2021/08/13 04:31:08;;;;;;;2.90;2.08;;;;;;;;;;5093083;28;20024;-72
2021/08/13 04:33:35;;;;;;;2.17;1.90;;;;;;;;;;5093194;28;20079;-71
2021/08/13 04:36:04;;;;;;;2.00;1.80;;;;;;;;;;5092586;28;20031;-66
2021/08/13 04:38:30;;;;;;;2.45;2.25;;;;;;;;;;5092716;28;20099;-71
2021/08/13 04:40:56;;;;;;;2.17;1.98;;;;;;;;;;5093384;28;20043;-71
2021/08/13 04:43:22;;;;;;;3.47;2.05;;;;;;;;;;5093435;28;20455;-70
2021/08/13 04:45:48;;;;;;;3.20;2.17;;;;;;;;;;5093205;28;20028;-71
2021/08/13 04:48:14;;;;;;;8.70;1.80;;;;;;;;;;5096958;28;20153;-72
2021/08/13 04:50:40;;;;;;;2.30;1.90;;;;;;;;;;5096863;28;20370;-72
2021/08/13 04:53:06;;;;;;;4.32;2.00;;;;;;;;;;5096685;28;20028;-71
2021/08/13 04:55:32;;;;;;;2.25;1.95;;;;;;;;;;5097087;28;20028;-69
2021/08/13 04:57:57;;;;;;;5.10;1.80;;;;;;;;;;5097105;28;20022;-71
2021/08/13 05:00:24;;;;;;;4.57;1.80;;;;;;;;;;5096817;28;20032;-72
2021/08/13 05:02:50;;;;;;;2.10;1.90;;;;;;;;;;5096751;28;20020;-72
2021/08/13 05:05:16;;;;;;;2.53;1.80;;;;;;;;;;5096708;28;20107;-70
2021/08/13 05:07:42;;;;;;;2.33;1.83;;;;;;;;;;5097226;28;20028;-71
2021/08/13 05:10:09;;;;;;;3.38;2.13;;;;;;;;;;5096482;28;20024;-70
2021/08/13 05:12:36;;;;;;;5.95;2.20;;;;;;;;;;5096329;28;20044;-71
2021/08/13 05:15:02;;;;;;;3.08;2.05;;;;;;;;;;5096100;28;20032;-66
2021/08/13 05:17:28;;;;;;;3.65;1.70;;;;;;;;;;5096041;28;20467;-67
2021/08/13 05:19:54;;;;;;;4.90;2.13;;;;;;;;;;5095680;28;20032;-67
2021/08/13 05:22:20;;;;;;;3.25;2.22;;;;;;;;;;5095923;28;20428;-67
2021/08/13 05:24:46;;;;;;;6.35;2.08;;;;;;;;;;5095912;28;20032;-66
2021/08/13 05:27:12;;;;;;;3.53;2.53;;;;;;;;;;5077617;28;20020;-67
2021/08/13 05:29:38;;;;;;;4.00;1.92;;;;;;;;;;5095610;28;20028;-66
2021/08/13 05:32:04;;;;;;;4.88;2.10;;;;;;;;;;5096215;28;20024;-71
2021/08/13 05:34:30;;;;;;;3.60;2.20;;;;;;;;;;5096110;28;20032;-71
2021/08/13 05:36:56;;;;;;;3.25;2.20;;;;;;;;;;5106956;28;20027;-73
2021/08/13 05:39:22;;;;;;;3.47;2.28;;;;;;;;;;5103434;28;20024;-67
2021/08/13 05:41:48;;;;;;;4.95;2.70;;;;;;;;;;5107132;28;20024;-72
2021/08/13 05:44:14;;;;;;;5.28;2.50;;;;;;;;;;5095968;28;20483;-70
2021/08/13 05:46:39;;;;;;;3.75;2.72;;;;;;;;;;5095949;28;20055;-69
2021/08/13 05:49:05;;;;;;;5.25;2.30;;;;;;;;;;5096306;28;20036;-72
2021/08/13 05:51:31;;;;;;;5.05;2.83;;;;;;;;;;5095799;28;20103;-73
2021/08/13 05:53:57;;;;;;;3.80;2.80;;;;;;;;;;5077493;28;20035;-73
2021/08/13 05:56:23;;;;;;;4.32;2.75;;;;;;;;;;5095710;28;20115;-73
2021/08/13 05:58:49;;;;;;;3.20;2.58;;;;;;;;;;5095562;28;20125;-73
2021/08/13 06:01:15;;;;;;;4.63;3.03;;;;;;;;;;5095901;28;20035;-72
2021/08/13 06:03:41;;;;;;;4.38;2.45;;;;;;;;;;5096012;28;20055;-74
2021/08/13 06:06:07;;;;;;;4.95;2.83;;;;;;;;;;5077848;28;20012;-73
2021/08/13 06:08:33;;;;;;;3.70;2.80;;;;;;;;;;5095342;28;20468;-73
2021/08/13 06:11:00;;;;;;;4.97;3.30;;;;;;;;;;5095614;28;20020;-70
2021/08/13 06:13:25;;;;;;;7.80;3.13;;;;;;;;;;5095132;28;20054;-73
2021/08/13 06:15:52;;;;;;;7.72;3.30;;;;;;;;;;5077300;28;20032;-74
2021/08/13 06:18:17;;;;;;;6.55;2.88;;;;;;;;;;5095479;28;20020;-74
2021/08/13 06:20:43;;;;;;;6.28;3.25;;;;;;;;;;5095323;28;20109;-67
2021/08/13 06:23:09;;;;;;;4.38;3.22;;;;;;;;;;5077231;28;20024;-73
2021/08/13 06:25:35;;;;;;;7.68;3.10;;;;;;;;;;5095259;28;20093;-71
2021/08/13 06:28:01;;;;;;;8.65;3.50;;;;;;;;;;5095289;28;20023;-73
2021/08/13 06:30:27;;;;;;;11.43;3.58;;;;;;;;;;5097513;28;20024;-72
2021/08/13 06:32:55;;;;;;;9.07;3.80;;;;;;;;;;5094808;28;20450;-72
2021/08/13 06:35:21;;;;;;;9.98;4.10;;;;;;;;;;5114690;28;20027;-67
2021/08/13 06:37:51;;;;;;;11.02;3.85;;;;;;;;;;5115387;28;20024;-69
2021/08/13 06:40:17;;;;;;;7.20;3.00;;;;;;;;;;5114757;28;20106;-70
2021/08/13 06:42:43;;;;;;;9.60;3.00;;;;;;;;;;5114976;28;20509;-67
2021/08/13 06:45:10;;;;;;;10.30;3.38;;;;;;;;;;5115470;28;20020;-70
2021/08/13 06:47:36;;;;;;;8.40;3.45;;;;;;;;;;5115484;28;20027;-73
2021/08/13 06:50:03;;;;;;;6.43;2.85;;;;;;;;;;5114831;28;20477;-74
2021/08/13 06:52:29;;;;;;;7.05;3.10;;;;;;;;;;5115254;28;20501;-73
2021/08/13 06:54:54;;;;;;;7.60;3.28;;;;;;;;;;5115166;28;20071;-71
2021/08/13 06:57:20;;;;;;;6.13;3.00;;;;;;;;;;5114736;28;20047;-72
2021/08/13 06:59:46;;;;;;;10.02;3.22;;;;;;;;;;5114430;28;20034;-69
2021/08/13 07:02:12;;;;;;;5.78;2.85;;;;;;;;;;5114804;28;20019;-72
2021/08/13 07:04:38;;;;;;;10.05;2.97;;;;;;;;;;5113486;28;20028;-72
2021/08/13 07:07:04;;;;;;;6.88;3.10;;;;;;;;;;5076102;28;20032;-68
2021/08/13 07:09:30;;;;;;;7.82;2.80;;;;;;;;;;5092239;28;20063;-69
2021/08/13 07:11:56;;;;;;;8.63;2.83;;;;;;;;;;5086944;28;20024;-70
2021/08/13 07:14:22;;;;;;;7.22;3.05;;;;;;;;;;5084574;28;20146;-69
2021/08/13 07:16:48;;;;;;;6.57;2.17;;;;;;;;;;5075465;28;20020;-72
2021/08/13 07:19:14;;;;;;;4.75;2.50;;;;;;;;;;5091270;28;20035;-70
2021/08/13 07:21:40;;;;;;;8.50;2.70;;;;;;;;;;5093283;28;20028;-71
2021/08/13 07:24:06;;;;;;;7.57;2.78;;;;;;;;;;5090629;28;20036;-71
2021/08/13 07:26:33;;;;;;;9.05;2.35;;;;;;;;;;5087992;28;20046;-73
2021/08/13 07:28:59;;;;;;;7.18;2.47;;;;;;;;;;5066007;28;20447;-71
2021/08/13 07:31:25;;;;;;;7.57;2.40;;;;;;;;;;5090048;28;20024;-72
2021/08/13 07:33:51;;;;;;;3.30;1.98;;;;;;;;;;5074461;28;20131;-69
2021/08/13 07:36:18;;;;;;;10.23;2.40;;;;;;;;;;5075507;28;20047;-71
2021/08/13 07:38:44;;;;;;;4.65;2.38;;;;;;;;;;5073267;28;20029;-70
2021/08/13 07:41:10;;;;;;;5.72;2.38;;;;;;;;;;5087299;28;20016;-71
2021/08/13 07:43:37;;;;;;;6.72;2.08;;;;;;;;;;5092306;28;20062;-71
2021/08/13 07:46:04;;;;;;;6.70;2.25;;;;;;;;;;5100599;28;20583;-70
2021/08/13 07:48:30;;;;;;;6.22;2.55;;;;;;;;;;5083795;28;20066;-69
2021/08/13 07:50:56;;;;;;;7.63;2.58;;;;;;;;;;5076745;28;20039;-72
2021/08/13 07:53:22;;;;;;;8.02;2.85;;;;;;;;;;5092130;28;20395;-71
2021/08/13 07:55:48;;;;;;;7.78;2.63;;;;;;;;;;5080405;28;20084;-68
2021/08/13 07:58:14;;;;;;;12.95;2.70;;;;;;;;;;5079439;28;20047;-68
2021/08/13 08:00:40;;;;;;;7.95;3.08;;;;;;;;;;5095669;28;20027;-70
2021/08/13 08:03:07;;;;;;;6.97;2.50;;;;;;;;;;5089852;28;20084;-70
2021/08/13 08:05:33;;;;;;;8.65;2.33;;;;;;;;;;5102080;28;20400;-69
2021/08/13 08:07:59;;;;;;;8.75;2.60;;;;;;;;;;5101469;28;20027;-69
2021/08/13 08:10:25;;;;;;;10.93;2.45;;;;;;;;;;5095849;28;20383;-70
2021/08/13 08:12:51;;;;;;;5.20;2.42;;;;;;;;;;5095896;28;20048;-71
2021/08/13 08:15:17;;;;;;;5.63;2.38;;;;;;;;;;5098206;28;20472;-70
2021/08/13 08:17:43;;;;;;;6.03;2.65;;;;;;;;;;5105025;28;20531;-72
2021/08/13 08:20:10;;;;;;;5.28;2.58;;;;;;;;;;5087413;28;20119;-69
2021/08/13 08:22:36;;;;;;;5.95;2.38;;;;;;;;;;5106968;28;20024;-69
2021/08/13 08:25:03;;;;;;;10.82;2.28;;;;;;;;;;5097646;28;20040;-73
2021/08/13 08:27:29;;;;;;;8.68;2.60;;;;;;;;;;5113448;28;20026;-74
2021/08/13 08:29:55;;;;;;;7.20;2.55;;;;;;;;;;5112327;28;20103;-74
2021/08/13 08:32:21;;;;;;;7.05;2.38;;;;;;;;;;5101848;28;20020;-66
2021/08/13 08:34:47;;;;;;;6.07;2.78;;;;;;;;;;5096999;28;20152;-75
2021/08/13 08:37:13;;;;;;;8.77;2.80;;;;;;;;;;5097540;28;20095;-71
2021/08/13 08:39:40;;;;;;;6.78;2.50;;;;;;;;;;5097150;28;20038;-73
2021/08/13 08:42:12;;;;;;;7.70;2.40;;;;;;;;;;5096737;28;20095;-65
2021/08/13 08:44:38;;;;;;;8.80;2.35;;;;;;;;;;5096926;28;20023;-74
2021/08/13 08:47:05;;;;;;;7.57;2.40;;;;;;;;;;5078837;28;20089;-72
2021/08/13 08:49:32;;;;;;;5.45;2.20;;;;;;;;;;5082549;28;20032;-72
2021/08/13 08:51:58;;;;;;;5.65;2.40;;;;;;;;;;5076634;28;20021;-73
2021/08/13 08:54:26;;;;;;;4.88;2.10;;;;;;;;;;5076549;28;20028;-73
2021/08/13 08:56:52;;;;;;;5.00;2.42;;;;;;;;;;5058689;28;20024;-73
2021/08/13 08:59:21;;;;;;;5.53;2.38;;;;;;;;;;5058469;28;20033;-66
2021/08/13 09:01:47;;;;;;;6.25;2.50;;;;;;;;;;5075728;28;20055;-68
2021/08/13 09:04:13;;;;;;;9.70;2.40;;;;;;;;;;5075832;28;20027;-67
2021/08/13 09:06:40;;;;;;;5.75;2.30;;;;;;;;;;5076069;28;20029;-73
2021/08/13 09:09:07;;;;;;;6.90;2.40;;;;;;;;;;5094918;28;20471;-67
2021/08/13 09:11:33;;;;;;;6.72;2.05;;;;;;;;;;5116827;28;20145;-66
2021/08/13 09:14:01;;;;;;;7.53;2.10;;;;;;;;;;5116358;28;20055;-71
2021/08/13 09:16:27;;;;;;;8.07;2.45;;;;;;;;;;5116510;28;20023;-72
2021/08/13 09:19:00;;;;;;;5.43;1.92;;;;;;;;;;5116680;28;20024;-69
2021/08/13 09:21:26;;;;;;;5.40;2.10;;;;;;;;;;5116632;28;20060;-69
2021/08/13 09:23:54;;;;;;;13.00;3.33;;;;;;;;;;5116803;28;20073;-65
2021/08/13 09:26:21;;;;;;;6.35;2.45;;;;;;;;;;5098158;28;20020;-71
2021/08/13 09:28:55;;;;;;;10.13;2.30;;;;;;;;;;5116705;28;20022;-69
2021/08/13 09:31:23;;;;;;;7.95;2.42;;;;;;;;;;5114822;28;20466;-67
2021/08/13 09:33:50;;;;;;;11.25;2.85;;;;;;;;;;5103125;28;20040;-65
2021/08/13 09:36:17;;;;;;;6.47;2.42;;;;;;;;;;5101708;28;20024;-71
2021/08/13 09:38:44;;;;;;;9.30;2.42;;;;;;;;;;5105109;28;20016;-66
2021/08/13 09:41:11;;;;;;;11.20;2.97;;;;;;;;;;5108406;28;20089;-68
2021/08/13 09:43:52;;;;;;;9.30;2.50;;;;;;;;;;5109354;28;20347;-70
2021/08/13 09:46:18;;;;;;;9.50;2.20;;;;;;;;;;5115442;28;20028;-65
2021/08/13 09:48:44;;;;;;;8.70;2.38;;;;;;;;;;5116105;28;20024;-66
2021/08/13 09:51:31;;;;;;;11.40;2.30;;;;;;;;;;5115855;28;20031;-69
2021/08/13 09:54:01;;;;;;;13.15;2.97;;;;;;;;;;5115868;28;20427;-71
2021/08/13 09:56:30;;;;;;;11.35;2.30;;;;;;;;;;5115796;28;20059;-66
2021/08/13 09:59:06;;;;;;;10.52;2.50;;;;;;;;;;5115871;28;20089;-72
2021/08/13 10:01:36;;;;;;;10.40;2.42;;;;;;;;;;5115985;28;20062;-73
2021/08/13 10:04:02;;;;;;;9.88;2.38;;;;;;;;;;5115757;28;20388;-67
2021/08/13 10:06:32;;;;;;;13.98;2.83;;;;;;;;;;5109635;28;20039;-68
2021/08/13 10:08:58;;;;;;;13.55;2.85;;;;;;;;;;5107711;28;20388;-68
2021/08/13 10:11:24;;;;;;;14.65;3.15;;;;;;;;;;5095000;28;20534;-65
2021/08/13 10:13:50;;;;;;;10.57;2.47;;;;;;;;;;5059574;28;20137;-65
2021/08/13 10:16:23;;;;;;;4.43;1.70;;;;;;;;;;4992175;28;20026;-65
2021/08/13 10:18:50;;;;;;;10.57;2.30;;;;;;;;;;4992087;28;20033;-66
2021/08/13 10:21:17;;;;;;;11.30;2.47;;;;;;;;;;4992000;28;20433;-66
2021/08/13 10:23:44;;;;;;;13.43;3.05;;;;;;;;;;4992229;28;20034;-65
2021/08/13 10:26:11;;;;;;;17.27;2.75;;;;;;;;;;4992426;28;20069;-67
2021/08/13 10:28:37;;;;;;;10.82;2.67;;;;;;;;;;4992560;28;20041;-68
2021/08/13 10:31:04;;;;;;;9.32;2.42;;;;;;;;;;4992423;28;20034;-65
2021/08/13 10:33:30;;;;;;;12.23;2.60;;;;;;;;;;4992112;28;20072;-65
2021/08/13 10:35:58;;;;;;;15.90;2.90;;;;;;;;;;4992254;28;20061;-67
2021/08/13 10:38:25;;;;;;;15.48;3.28;;;;;;;;;;5059481;28;20124;-66
2021/08/13 10:40:51;;;;;;;12.38;2.53;;;;;;;;;;4992007;28;20484;-67
2021/08/13 10:43:19;;;;;;;8.88;2.50;;;;;;;;;;4991611;28;20026;-66
2021/08/13 10:45:47;;;;;;;9.05;2.88;;;;;;;;;;4991663;28;20062;-68
2021/08/13 10:48:15;;;;;;;13.70;2.75;;;;;;;;;;4992139;28;20018;-69
2021/08/13 10:50:41;;;;;;;11.50;2.58;;;;;;;;;;4991978;28;20461;-65
2021/08/13 10:53:26;;;;;;;9.77;2.53;;;;;;;;;;4991818;28;20026;-67
2021/08/13 10:55:56;;;;;;;10.73;2.33;;;;;;;;;;4991855;28;20043;-66
2021/08/13 10:58:42;;;;;;;13.93;2.30;;;;;;;;;;5002134;28;20071;-65
2021/08/13 11:01:08;;;;;;;10.55;2.40;;;;;;;;;;4999003;28;20380;-65
2021/08/13 11:03:53;;;;;;;12.30;3.30;;;;;;;;;;5000699;28;20018;-65
2021/08/13 11:06:39;;;;;;;8.73;2.30;;;;;;;;;;5008279;28;20044;-67
2021/08/13 11:09:05;;;;;;;14.02;2.40;;;;;;;;;;5002167;28;20110;-66
2021/08/13 11:11:50;;;;;;;9.93;2.50;;;;;;;;;;5036631;28;20518;-65
2021/08/13 11:14:37;;;;;;;15.90;2.80;;;;;;;;;;5073391;28;20387;-66
2021/08/13 11:17:04;;;;;;;11.63;2.95;;;;;;;;;;5073281;28;20490;-66
2021/08/13 11:19:49;;;;;;;11.57;2.45;;;;;;;;;;5073138;28;20028;-67
2021/08/13 11:22:28;;;;;;;9.48;2.30;;;;;;;;;;5073179;28;20499;-70
2021/08/13 11:24:54;;;;;;;12.90;2.42;;;;;;;;;;5072851;28;20055;-65
2021/08/13 11:27:20;;;;;;;15.10;2.47;;;;;;;;;;5073109;28;20044;-69
2021/08/13 11:29:47;;;;;;;10.73;2.25;;;;;;;;;;5073211;28;20047;-68
2021/08/13 11:32:18;;;;;;;13.25;2.60;;;;;;;;;;5031550;28;20061;-65
2021/08/13 11:34:46;;;;;;;10.60;3.00;;;;;;;;;;4971719;28;20035;-65
2021/08/13 11:37:30;;;;;;;10.48;2.50;;;;;;;;;;4971693;28;20019;-66
2021/08/13 11:40:02;;;;;;;14.02;2.75;;;;;;;;;;4971652;28;20035;-66
2021/08/13 11:42:31;;;;;;;14.07;2.60;;;;;;;;;;4971645;28;20035;-65
2021/08/13 11:44:58;;;;;;;7.47;1.98;;;;;;;;;;4971567;28;20038;-66
2021/08/13 11:47:24;;;;;;;11.48;2.50;;;;;;;;;;5038027;28;20026;-66
2021/08/13 11:49:51;;;;;;;12.45;2.83;;;;;;;;;;4971475;28;20089;-65
2021/08/13 11:52:20;;;;;;;11.20;2.33;;;;;;;;;;5038082;28;20463;-65
2021/08/13 11:54:46;;;;;;;10.18;2.63;;;;;;;;;;4971052;28;20046;-65
2021/08/13 11:57:16;;;;;;;11.45;2.60;;;;;;;;;;4971494;28;20031;-66
2021/08/13 11:59:43;;;;;;;9.05;2.10;;;;;;;;;;4971548;28;20031;-66
2021/08/13 12:02:09;;;;;;;16.02;2.80;;;;;;;;;;4971478;28;20022;-66
2021/08/13 12:04:35;;;;;;;11.57;2.35;;;;;;;;;;4971287;28;20111;-67
2021/08/13 12:07:08;;;;;;;9.43;2.40;;;;;;;;;;4971373;28;20420;-67
2021/08/13 12:09:41;;;;;;;11.63;2.30;;;;;;;;;;4983579;28;20018;-67
2021/08/13 12:12:08;;;;;;;9.75;3.03;;;;;;;;;;5012411;28;20047;-67
2021/08/13 12:14:35;;;;;;;9.70;2.28;;;;;;;;;;5113124;28;20475;-68
2021/08/13 12:17:01;;;;;;;8.88;2.67;;;;;;;;;;5113116;28;20030;-66
2021/08/13 12:19:27;;;;;;;11.70;2.15;;;;;;;;;;5113266;28;20060;-65
2021/08/13 12:21:54;;;;;;;13.73;2.63;;;;;;;;;;5113244;28;20031;-65
2021/08/13 12:24:31;;;;;;;16.52;2.88;;;;;;;;;;5113442;28;20472;-67
2021/08/13 12:26:58;;;;;;;10.63;2.28;;;;;;;;;;5094801;28;20066;-66
2021/08/13 12:29:25;;;;;;;12.63;2.55;;;;;;;;;;5113060;28;20024;-65
2021/08/13 12:31:52;;;;;;;8.90;2.53;;;;;;;;;;5113100;28;20031;-66
2021/08/13 12:34:23;;;;;;;12.25;2.22;;;;;;;;;;5094568;28;20039;-70
2021/08/13 12:37:02;;;;;;;7.47;2.40;;;;;;;;;;5110769;28;20041;-67
2021/08/13 12:39:28;;;;;;;10.45;2.53;;;;;;;;;;5092288;28;20047;-66
2021/08/13 12:41:54;;;;;;;11.57;2.67;;;;;;;;;;5092934;28;20035;-68
2021/08/13 12:44:20;;;;;;;11.45;2.60;;;;;;;;;;5092724;28;20020;-67
2021/08/13 12:46:47;;;;;;;9.43;2.17;;;;;;;;;;5092562;28;20043;-66
2021/08/13 12:49:13;;;;;;;10.93;2.65;;;;;;;;;;5092622;28;20103;-65
2021/08/13 12:51:39;;;;;;;14.38;2.67;;;;;;;;;;5092441;28;20103;-66
2021/08/13 12:54:25;;;;;;;13.40;2.50;;;;;;;;;;5092597;28;20193;-69
2021/08/13 12:56:57;;;;;;;16.45;2.47;;;;;;;;;;5092507;28;20374;-67
2021/08/13 12:59:30;;;;;;;13.13;2.70;;;;;;;;;;5092543;28;20039;-65
2021/08/13 13:01:56;;;;;;;11.25;2.05;;;;;;;;;;5091043;28;20540;-66
2021/08/13 13:04:22;;;;;;;15.88;2.60;;;;;;;;;;5092351;28;20021;-66
2021/08/13 13:06:51;;;;;;;11.50;2.50;;;;;;;;;;5091363;28;20020;-65
2021/08/13 13:09:43;;;;;;;8.40;2.20;;;;;;;;;;5107320;28;20034;-73
2021/08/13 13:12:18;;;;;;;15.18;2.83;;;;;;;;;;5111766;28;20039;-66
2021/08/13 13:14:45;;;;;;;15.27;2.90;;;;;;;;;;5116521;28;20039;-72
2021/08/13 13:17:11;;;;;;;10.63;2.80;;;;;;;;;;5117309;28;20028;-72
2021/08/13 13:19:38;;;;;;;15.82;2.80;;;;;;;;;;5117186;28;20024;-73
2021/08/13 13:22:14;;;;;;;10.80;2.38;;;;;;;;;;5108581;28;20059;-68
2021/08/13 13:24:40;;;;;;;13.15;2.80;;;;;;;;;;5096016;28;20047;-66
2021/08/13 13:27:06;;;;;;;11.20;2.97;;;;;;;;;;5095597;28;20055;-66
2021/08/13 13:29:42;;;;;;;9.48;2.05;;;;;;;;;;5078091;28;20028;-65
2021/08/13 13:32:26;;;;;;;9.85;2.33;;;;;;;;;;5069986;28;20060;-66
2021/08/13 13:34:59;;;;;;;9.18;2.15;;;;;;;;;;5075179;28;20037;-72
2021/08/13 13:37:26;;;;;;;13.05;2.47;;;;;;;;;;5057368;28;20030;-70
2021/08/13 13:39:52;;;;;;;9.90;2.65;;;;;;;;;;5079273;28;20078;-66
2021/08/13 13:42:25;;;;;;;10.23;2.78;;;;;;;;;;5095655;28;20070;-66
2021/08/13 13:44:51;;;;;;;13.65;2.80;;;;;;;;;;5100448;28;20024;-65
2021/08/13 13:47:17;;;;;;;13.45;2.63;;;;;;;;;;5107495;28;20351;-67
2021/08/13 13:49:43;;;;;;;18.23;3.35;;;;;;;;;;5105534;28;20024;-68
2021/08/13 13:52:09;;;;;;;13.38;2.75;;;;;;;;;;5103598;28;20024;-65
2021/08/13 13:54:36;;;;;;;17.58;2.95;;;;;;;;;;5107316;28;20031;-66
2021/08/13 13:57:02;;;;;;;10.60;2.47;;;;;;;;;;5102990;28;20043;-67
2021/08/13 13:59:28;;;;;;;9.20;2.35;;;;;;;;;;5100259;28;20023;-67
2021/08/13 14:01:54;;;;;;;13.35;3.20;;;;;;;;;;5100525;28;20069;-66
2021/08/13 14:04:20;;;;;;;12.90;3.15;;;;;;;;;;5103459;28;20027;-66
2021/08/13 14:06:46;;;;;;;9.05;2.35;;;;;;;;;;5101382;28;20064;-68
2021/08/13 14:09:12;;;;;;;13.80;2.40;;;;;;;;;;5096083;28;20117;-67
2021/08/13 14:11:38;;;;;;;12.98;2.67;;;;;;;;;;5108726;28;20073;-66
2021/08/13 14:14:04;;;;;;;12.63;2.80;;;;;;;;;;5113789;28;20047;-70
2021/08/13 14:16:30;;;;;;;13.07;2.50;;;;;;;;;;5115304;28;20024;-67
2021/08/13 14:18:56;;;;;;;19.15;3.40;;;;;;;;;;5102770;28;20017;-67
2021/08/13 14:21:22;;;;;;;19.42;3.50;;;;;;;;;;5094747;28;20048;-70
2021/08/13 14:23:48;;;;;;;12.50;2.45;;;;;;;;;;5085043;28;20102;-66
2021/08/13 14:26:14;;;;;;;14.88;2.78;;;;;;;;;;5106117;28;20015;-67
2021/08/13 14:28:40;;;;;;;9.35;2.30;;;;;;;;;;5084356;28;20027;-70
2021/08/13 14:31:07;;;;;;;17.08;3.10;;;;;;;;;;5102546;28;20035;-70
2021/08/13 14:33:32;;;;;;;15.18;2.92;;;;;;;;;;5094347;28;20032;-67
2021/08/13 14:35:58;;;;;;;14.45;2.95;;;;;;;;;;5094135;28;20031;-66
2021/08/13 14:38:24;;;;;;;10.90;2.42;;;;;;;;;;5093381;28;20024;-67
2021/08/13 14:40:51;;;;;;;15.43;3.72;;;;;;;;;;5093884;28;20108;-66